Centerview, North Carolina
Current Conditions -  °F | °C
As of 12:55 PM on Thursday 27 Nov 2014 (Local Time) from KJQF Reporting Station
Light Rain Light Rain  
Wind Chill: 43°   Ceiling: 4900
Heat Index: 48°   Visibility: 10mi
Dew Point: 30°   Wind: 12mph
Humidity: 50%   Direction: 320°NW
Pressure: 30.13"   Gusts: 21mph
Location:  35.5043°N, 80.6706°W
Report Text: KJQF 271755Z 32010G18KT 10SM -RA OVC049 09/M01 A3013
Loading
Personal Weather Stations






























Interactive Weather Map New forecast layout! Learn more

10-Day Weather Forecast

Advertisements
Track Severe Weather on mobile